Time;durP1;ratioP1;P1;durP2;ratioP2;P2;SDS_P1;SDS_P2;PMS_P1;PMS_P2;Temp;Humidity;BMP_temperature;BMP_pressure;BME280_temperature;BME280_humidity;BME280_pressure;Samples;Min_cycle;Max_cycle;Signal;HPM_P1;HPM_P2
2022/03/22 00:01:15;;;;;;;;;;;-0.30;97.70;;;;;;4194915;28;19935;-45
2022/03/22 00:03:19;;;;;;;;;;;-0.40;97.90;;;;;;4195471;28;19929;-46
2022/03/22 00:05:21;;;;;;;;;;;-0.40;99.80;;;;;;4194827;28;20349;-44
2022/03/22 00:07:23;;;;;;;;;;;-0.40;99.90;;;;;;4194994;28;19924;-44
2022/03/22 00:09:25;;;;;;;;;;;-0.50;99.90;;;;;;4195260;28;20236;-44
2022/03/22 00:11:27;;;;;;;;;;;-0.60;99.90;;;;;;4194796;28;19952;-48
2022/03/22 00:13:29;;;;;;;;;;;-0.70;99.90;;;;;;4195008;28;19929;-45
2022/03/22 00:15:31;;;;;;;;;;;-0.70;99.90;;;;;;4193784;28;20105;-44
2022/03/22 00:17:53;;;;;;;;;;;-0.60;99.90;;;;;;4194281;28;20404;-45
2022/03/22 00:19:55;;;;;;;;;;;-0.70;99.90;;;;;;4193732;28;19954;-46
2022/03/22 00:21:57;;;;;;;;;;;-1.00;99.90;;;;;;4194624;28;19936;-46
2022/03/22 00:24:00;;;;;;;;;;;-1.00;99.90;;;;;;4194818;28;19955;-47
2022/03/22 00:26:03;;;;;;;;;;;-1.00;99.90;;;;;;4194438;28;19959;-46
2022/03/22 00:28:05;;;;;;;;;;;-1.00;99.90;;;;;;4194984;28;19924;-47
2022/03/22 00:30:07;;;;;;;;;;;-1.10;99.90;;;;;;4194543;28;19934;-47
2022/03/22 00:32:09;;;;;;;;;;;-1.20;99.90;;;;;;4194493;28;19928;-48
2022/03/22 00:34:13;;;;;;;;;;;-1.30;99.90;;;;;;4194770;28;19978;-45
2022/03/22 00:36:15;;;;;;;;;;;-1.20;99.90;;;;;;4193102;28;19934;-45
2022/03/22 00:38:17;;;;;;;;;;;-1.20;99.90;;;;;;4194840;28;19929;-43
2022/03/22 00:40:20;;;;;;;;;;;-1.20;99.90;;;;;;4194753;28;19924;-43
2022/03/22 00:42:22;;;;;;;;;;;-1.20;99.90;;;;;;4194374;28;19932;-45
2022/03/22 00:44:24;;;;;;;;;;;-1.10;99.90;;;;;;4194346;28;20343;-44
2022/03/22 00:46:26;;;;;;;;;;;-0.90;99.90;;;;;;4194181;28;19925;-45
2022/03/22 00:48:28;;;;;;;;;;;-0.90;99.90;;;;;;4194075;28;19943;-44
2022/03/22 00:50:33;;;;;;;;;;;-0.80;99.90;;;;;;4189105;28;20521;-44
2022/03/22 00:52:36;;;;;;;;;;;-0.90;99.90;;;;;;4190016;28;20032;-46
2022/03/22 00:54:38;;;;;;;;;;;-0.90;99.90;;;;;;4194117;28;19928;-44
2022/03/22 00:56:41;;;;;;;;;;;-1.00;99.90;;;;;;4194402;28;20403;-47
2022/03/22 00:58:43;;;;;;;;;;;-1.10;99.90;;;;;;4194518;28;19947;-43
2022/03/22 01:00:48;;;;;;;;;;;-1.20;99.90;;;;;;4194105;28;20231;-47
2022/03/22 01:02:51;;;;;;;;;;;-1.30;99.90;;;;;;4194258;28;20023;-47
2022/03/22 01:04:53;;;;;;;;;;;-1.50;99.90;;;;;;4194156;28;19939;-45
2022/03/22 01:06:55;;;;;;;;;;;-1.70;99.90;;;;;;4195218;28;19970;-45
2022/03/22 01:08:56;;;;;;;;;;;-1.70;99.90;;;;;;4192496;28;19952;-46
2022/03/22 01:10:58;;;;;;;;;;;-1.60;99.90;;;;;;4193443;28;19928;-44
2022/03/22 01:13:01;;;;;;;;;;;-1.70;99.90;;;;;;4192114;28;19955;-44
2022/03/22 01:15:04;;;;;;;;;;;-1.70;99.90;;;;;;4192604;28;20428;-44
2022/03/22 01:17:08;;;;;;;;;;;-1.70;99.90;;;;;;4193788;28;19925;-44
2022/03/22 01:19:10;;;;;;;;;;;-1.70;99.90;;;;;;4194549;28;19977;-47
2022/03/22 01:21:12;;;;;;;;;;;-1.50;99.90;;;;;;4192185;28;19936;-47
2022/03/22 01:23:19;;;;;;;;;;;-1.50;99.90;;;;;;4193671;28;19960;-47
2022/03/22 01:25:23;;;;;;;;;;;-1.50;99.90;;;;;;4192516;28;19931;-44
2022/03/22 01:27:26;;;;;;;;;;;-1.60;99.90;;;;;;4192420;28;19924;-47
2022/03/22 01:29:28;;;;;;;;;;;-1.60;99.90;;;;;;4192656;28;19928;-44
2022/03/22 01:31:30;;;;;;;;;;;-1.60;99.90;;;;;;4193471;28;19925;-45
2022/03/22 01:33:32;;;;;;;;;;;-1.60;99.90;;;;;;4193829;28;19928;-46
2022/03/22 01:35:34;;;;;;;;;;;-1.70;99.90;;;;;;4193862;28;20663;-44
2022/03/22 01:37:37;;;;;;;;;;;-1.70;99.90;;;;;;4193682;28;20368;-45
2022/03/22 01:39:39;;;;;;;;;;;-1.70;99.90;;;;;;4193749;28;19994;-47
2022/03/22 01:41:41;;;;;;;;;;;-1.60;99.90;;;;;;4193692;28;19928;-46
2022/03/22 01:43:42;;;;;;;;;;;-1.70;99.90;;;;;;4193158;28;19968;-48
2022/03/22 01:45:48;;;;;;;;;;;-1.70;99.90;;;;;;4193447;28;19928;-45
2022/03/22 01:47:50;;;;;;;;;;;-1.80;99.90;;;;;;4192991;28;20379;-46
2022/03/22 01:49:52;;;;;;;;;;;-1.80;99.90;;;;;;4193760;28;20027;-46
2022/03/22 01:51:54;;;;;;;;;;;-1.80;99.90;;;;;;4193115;28;19968;-44
2022/03/22 01:53:56;;;;;;;;;;;-1.80;99.90;;;;;;4193936;28;19924;-47
2022/03/22 01:55:58;;;;;;;;;;;-1.80;99.90;;;;;;4193233;28;20400;-47
2022/03/22 01:58:00;;;;;;;;;;;-1.90;99.90;;;;;;4192471;28;19924;-45
2022/03/22 02:00:07;;;;;;;;;;;-1.90;99.90;;;;;;4193437;28;19975;-45
2022/03/22 02:06:52;;;;;;;;;;;-2.20;99.90;;;;;;4193108;28;19960;-45
2022/03/22 02:08:54;;;;;;;;;;;-2.30;99.90;;;;;;4194037;28;19929;-46
2022/03/22 02:10:58;;;;;;;;;;;-2.30;99.90;;;;;;4193185;28;20091;-44
2022/03/22 02:13:00;;;;;;;;;;;-2.30;99.90;;;;;;4193444;28;19924;-48
2022/03/22 02:15:03;;;;;;;;;;;-2.30;99.90;;;;;;4193659;28;19925;-48
2022/03/22 02:17:05;;;;;;;;;;;-2.30;99.90;;;;;;4193066;28;20352;-47
2022/03/22 02:19:08;;;;;;;;;;;-2.20;99.90;;;;;;4192662;28;19928;-46
2022/03/22 02:21:10;;;;;;;;;;;-2.30;99.90;;;;;;4193410;28;19981;-45
2022/03/22 02:23:20;;;;;;;;;;;-2.20;99.90;;;;;;4194930;28;20416;-45
2022/03/22 02:25:22;;;;;;;;;;;-2.20;99.90;;;;;;4196891;28;19924;-45
2022/03/22 02:27:27;;;;;;;;;;;-2.30;99.90;;;;;;4196522;28;19928;-44
2022/03/22 02:29:29;;;;;;;;;;;-2.30;99.90;;;;;;4195416;28;20343;-45
2022/03/22 02:31:31;;;;;;;;;;;-2.30;99.90;;;;;;4195392;28;19938;-46
2022/03/22 02:33:33;;;;;;;;;;;-2.30;99.90;;;;;;4196272;28;20909;-48
2022/03/22 02:35:41;;;;;;;;;;;-2.40;99.90;;;;;;4196724;28;19938;-46
2022/03/22 02:37:49;;;;;;;;;;;-2.50;99.90;;;;;;4205620;28;20458;-45
2022/03/22 02:39:51;;;;;;;;;;;-2.50;99.90;;;;;;4196459;28;19940;-46
2022/03/22 02:41:53;;;;;;;;;;;-2.40;99.90;;;;;;4210430;28;19931;-45
2022/03/22 02:43:55;;;;;;;;;;;-2.40;99.90;;;;;;4190637;28;19932;-45
2022/03/22 02:45:57;;;;;;;;;;;-2.40;99.90;;;;;;4195283;28;19929;-44
2022/03/22 02:47:59;;;;;;;;;;;-2.50;99.90;;;;;;4194668;28;20370;-46
2022/03/22 02:50:01;;;;;;;;;;;-2.50;99.90;;;;;;4194660;28;19966;-44
2022/03/22 02:52:03;;;;;;;;;;;-2.40;99.90;;;;;;4196331;28;20388;-45
2022/03/22 02:54:05;;;;;;;;;;;-2.40;99.90;;;;;;4194505;28;19935;-45
2022/03/22 02:56:07;;;;;;;;;;;-2.30;99.90;;;;;;4185465;28;19932;-48
2022/03/22 02:58:09;;;;;;;;;;;-2.30;99.90;;;;;;4196043;28;19928;-47
2022/03/22 03:00:11;;;;;;;;;;;-2.30;99.90;;;;;;4194889;28;19932;-45
2022/03/22 03:02:13;;;;;;;;;;;-2.30;99.90;;;;;;4196163;28;19964;-46
2022/03/22 03:04:15;;;;;;;;;;;-2.30;99.90;;;;;;4196077;28;19928;-46
2022/03/22 03:06:17;;;;;;;;;;;-2.40;99.90;;;;;;4195926;28;19924;-47
2022/03/22 03:08:19;;;;;;;;;;;-2.30;99.90;;;;;;4195986;28;19940;-45
2022/03/22 03:10:21;;;;;;;;;;;-2.30;99.90;;;;;;4195978;28;20321;-44
2022/03/22 03:12:23;;;;;;;;;;;-2.30;99.90;;;;;;4195455;28;20404;-46
2022/03/22 03:14:40;;;;;;;;;;;-2.40;99.90;;;;;;4194985;28;19928;-47
2022/03/22 03:16:44;;;;;;;;;;;-2.30;99.90;;;;;;4194336;28;19931;-46
2022/03/22 03:18:46;;;;;;;;;;;-2.30;99.90;;;;;;4193987;28;20027;-45
2022/03/22 03:20:48;;;;;;;;;;;-2.40;99.90;;;;;;4195210;28;19925;-46
2022/03/22 03:22:50;;;;;;;;;;;-2.30;99.90;;;;;;4195387;28;19934;-45
2022/03/22 03:24:52;;;;;;;;;;;-2.30;99.90;;;;;;4193998;28;19978;-45
2022/03/22 03:26:54;;;;;;;;;;;-2.40;99.90;;;;;;4195712;28;19925;-48
2022/03/22 03:28:56;;;;;;;;;;;-2.40;99.90;;;;;;4195268;28;19964;-47
2022/03/22 03:30:58;;;;;;;;;;;-2.50;99.90;;;;;;4195702;28;19924;-48
2022/03/22 03:33:00;;;;;;;;;;;-2.60;99.90;;;;;;4195089;28;19924;-44
2022/03/22 03:35:03;;;;;;;;;;;-2.50;99.90;;;;;;4194423;28;20304;-44
2022/03/22 03:37:05;;;;;;;;;;;-2.50;99.90;;;;;;4195552;28;19986;-44
2022/03/22 03:39:08;;;;;;;;;;;-2.50;99.90;;;;;;4195663;28;19970;-46
2022/03/22 03:43:31;;;;;;;;;;;-2.50;99.90;;;;;;4195565;28;19978;-47
2022/03/22 03:47:55;;;;;;;;;;;-2.80;99.90;;;;;;4195512;28;19928;-44
2022/03/22 03:49:59;;;;;;;;;;;-3.00;99.90;;;;;;4195359;28;19924;-44
2022/03/22 03:52:02;;;;;;;;;;;-3.00;99.90;;;;;;4195418;28;19935;-47
2022/03/22 03:54:04;;;;;;;;;;;-2.90;99.90;;;;;;4195017;28;19928;-47
2022/03/22 03:56:06;;;;;;;;;;;-3.00;99.90;;;;;;4195471;28;19982;-46
2022/03/22 03:58:08;;;;;;;;;;;-3.10;99.90;;;;;;4194260;28;20006;-47
2022/03/22 04:00:10;;;;;;;;;;;-3.10;99.90;;;;;;4195023;28;20290;-47
2022/03/22 04:02:12;;;;;;;;;;;-3.00;99.90;;;;;;4195131;28;20381;-46
2022/03/22 04:04:14;;;;;;;;;;;-3.00;99.90;;;;;;4195017;28;20338;-47
2022/03/22 04:06:16;;;;;;;;;;;-3.00;99.90;;;;;;4195129;28;20027;-44
2022/03/22 04:08:18;;;;;;;;;;;-3.00;99.90;;;;;;4195195;28;19931;-46
2022/03/22 04:10:21;;;;;;;;;;;-3.10;99.90;;;;;;4194820;28;20402;-47
2022/03/22 04:12:23;;;;;;;;;;;-3.20;99.90;;;;;;4194556;28;19928;-47
2022/03/22 04:14:25;;;;;;;;;;;-3.20;99.90;;;;;;4195181;28;19928;-44
2022/03/22 04:16:27;;;;;;;;;;;-3.20;99.90;;;;;;4195171;28;19936;-46
2022/03/22 04:18:29;;;;;;;;;;;-3.20;99.90;;;;;;4193718;28;20402;-46
2022/03/22 04:20:31;;;;;;;;;;;-3.20;99.90;;;;;;4194499;28;19929;-45
2022/03/22 04:22:33;;;;;;;;;;;-3.10;99.90;;;;;;4194486;28;19972;-47
2022/03/22 04:24:35;;;;;;;;;;;-3.10;99.90;;;;;;4194885;28;19925;-47
2022/03/22 04:26:38;;;;;;;;;;;-3.20;99.90;;;;;;4194949;28;19967;-45
2022/03/22 04:33:21;;;;;;;;;;;-3.50;99.90;;;;;;4182966;28;19931;-47
2022/03/22 04:35:28;;;;;;;;;;;-3.40;99.90;;;;;;4194506;28;19959;-47
2022/03/22 04:37:30;;;;;;;;;;;-3.30;99.90;;;;;;4195108;28;20289;-44
2022/03/22 04:39:33;;;;;;;;;;;-3.30;99.90;;;;;;4194203;28;19939;-43
2022/03/22 04:41:35;;;;;;;;;;;-3.40;99.90;;;;;;4192947;28;19924;-44
2022/03/22 04:43:37;;;;;;;;;;;-3.50;99.90;;;;;;4194668;28;19931;-46
2022/03/22 04:45:39;;;;;;;;;;;-3.50;99.90;;;;;;4194210;28;20392;-45
2022/03/22 04:47:44;;;;;;;;;;;-3.50;99.90;;;;;;4194456;28;20027;-44
2022/03/22 04:49:46;;;;;;;;;;;-3.40;99.90;;;;;;4194310;28;20351;-45
2022/03/22 04:56:45;;;;;;;;;;;-3.50;99.90;;;;;;4193977;28;19929;-44
2022/03/22 04:58:48;;;;;;;;;;;-3.50;99.90;;;;;;4188645;28;20125;-47
2022/03/22 05:00:50;;;;;;;;;;;-3.50;99.90;;;;;;4194201;28;19928;-44
2022/03/22 05:02:52;;;;;;;;;;;-3.40;99.90;;;;;;4194294;28;19925;-43
2022/03/22 05:04:54;;;;;;;;;;;-3.30;99.90;;;;;;4192955;28;19936;-45
2022/03/22 05:06:56;;;;;;;;;;;-3.30;99.90;;;;;;4193929;28;20385;-46
2022/03/22 05:08:58;;;;;;;;;;;-3.30;99.90;;;;;;4194103;28;19929;-46
2022/03/22 05:11:00;;;;;;;;;;;-3.30;99.90;;;;;;4193960;28;19924;-45
2022/03/22 05:13:02;;;;;;;;;;;-3.20;99.90;;;;;;4193846;28;19924;-46
2022/03/22 05:15:04;;;;;;;;;;;-3.10;99.90;;;;;;4195413;28;20349;-47
2022/03/22 05:17:06;;;;;;;;;;;-3.10;99.90;;;;;;4193688;28;19952;-44
2022/03/22 05:19:08;;;;;;;;;;;-3.00;99.90;;;;;;4193287;28;20304;-44
2022/03/22 05:21:10;;;;;;;;;;;-3.30;99.90;;;;;;4193968;28;20426;-47
2022/03/22 05:23:12;;;;;;;;;;;-3.50;99.90;;;;;;4186163;28;19924;-44
2022/03/22 05:25:14;;;;;;;;;;;-3.50;99.90;;;;;;4193292;28;20007;-46
2022/03/22 05:27:17;;;;;;;;;;;-3.50;99.90;;;;;;4193403;28;19928;-47
2022/03/22 05:29:19;;;;;;;;;;;-3.50;99.90;;;;;;4193407;28;20357;-45
2022/03/22 05:31:21;;;;;;;;;;;-3.50;99.90;;;;;;4193453;28;19924;-44
2022/03/22 05:33:23;;;;;;;;;;;-3.40;99.90;;;;;;4192565;28;19935;-47
2022/03/22 05:35:25;;;;;;;;;;;-3.30;99.90;;;;;;4193566;28;19932;-45
2022/03/22 05:37:26;;;;;;;;;;;-3.40;99.90;;;;;;4184454;28;19929;-44
2022/03/22 05:39:30;;;;;;;;;;;-3.30;99.90;;;;;;4192739;28;19960;-45
2022/03/22 05:41:32;;;;;;;;;;;-3.40;99.90;;;;;;4193903;28;20369;-47
2022/03/22 05:43:35;;;;;;;;;;;-3.20;99.90;;;;;;4193382;28;20489;-47
2022/03/22 05:45:37;;;;;;;;;;;-3.20;99.90;;;;;;4193937;28;19967;-44
2022/03/22 05:47:39;;;;;;;;;;;-3.20;99.90;;;;;;4193444;28;20018;-44
2022/03/22 05:49:43;;;;;;;;;;;-3.30;99.90;;;;;;4180930;28;20193;-45
2022/03/22 05:51:45;;;;;;;;;;;-3.50;99.90;;;;;;4192104;28;20264;-45
2022/03/22 05:53:47;;;;;;;;;;;-3.60;99.90;;;;;;4193564;28;19928;-46
2022/03/22 05:55:49;;;;;;;;;;;-3.70;99.90;;;;;;4192657;28;19943;-46
2022/03/22 05:57:51;;;;;;;;;;;-3.70;99.90;;;;;;4192652;28;19925;-48
2022/03/22 05:59:53;;;;;;;;;;;-3.70;99.90;;;;;;4193743;28;19924;-47
2022/03/22 06:01:55;;;;;;;;;;;-3.80;99.90;;;;;;4192989;28;20312;-45
2022/03/22 06:03:57;;;;;;;;;;;-3.70;99.90;;;;;;4193387;28;19936;-45
2022/03/22 06:05:59;;;;;;;;;;;-3.50;99.90;;;;;;4192206;28;19928;-46
2022/03/22 06:08:01;;;;;;;;;;;-3.40;99.90;;;;;;4192688;28;19970;-45
2022/03/22 06:10:03;;;;;;;;;;;-3.30;99.90;;;;;;4193651;28;19960;-46
2022/03/22 06:12:06;;;;;;;;;;;-3.10;99.90;;;;;;4193086;28;19924;-45
2022/03/22 06:14:08;;;;;;;;;;;-3.10;99.90;;;;;;4193842;28;19931;-45
2022/03/22 06:16:10;;;;;;;;;;;-3.10;99.90;;;;;;4192254;28;19928;-45
2022/03/22 06:18:12;;;;;;;;;;;-3.10;99.90;;;;;;4188221;28;19928;-44
2022/03/22 06:20:14;;;;;;;;;;;-3.20;99.90;;;;;;4191974;28;19967;-46
2022/03/22 06:22:16;;;;;;;;;;;-3.20;99.90;;;;;;4191737;28;20248;-45
2022/03/22 06:24:18;;;;;;;;;;;-3.10;99.90;;;;;;4190878;28;20451;-44
2022/03/22 06:26:20;;;;;;;;;;;-3.10;99.90;;;;;;4192899;28;19928;-46
2022/03/22 06:28:22;;;;;;;;;;;-2.80;99.90;;;;;;4192646;28;19924;-47
2022/03/22 06:30:24;;;;;;;;;;;-2.70;99.90;;;;;;4190841;28;20594;-44
2022/03/22 06:32:26;;;;;;;;;;;-2.60;99.90;;;;;;4177129;28;20732;-48
2022/03/22 06:34:29;;;;;;;;;;;-2.50;99.90;;;;;;4193367;28;19932;-44
2022/03/22 06:36:31;;;;;;;;;;;-2.50;99.90;;;;;;4192448;28;19980;-47
2022/03/22 06:38:33;;;;;;;;;;;-2.50;99.90;;;;;;4193057;28;19928;-45
2022/03/22 06:40:37;;;;;;;;;;;-2.50;99.90;;;;;;4192140;28;19924;-47
2022/03/22 06:42:40;;;;;;;;;;;-2.40;99.90;;;;;;4190853;28;19932;-47
2022/03/22 06:44:42;;;;;;;;;;;-2.30;99.90;;;;;;4193360;28;19929;-48
2022/03/22 06:46:43;;;;;;;;;;;-2.10;99.90;;;;;;4191393;28;19925;-48
2022/03/22 06:48:45;;;;;;;;;;;-1.90;99.90;;;;;;4191418;28;20372;-45
2022/03/22 06:50:51;;;;;;;;;;;-1.80;99.90;;;;;;4186734;28;19928;-44
2022/03/22 06:52:53;;;;;;;;;;;-1.70;99.90;;;;;;4192327;28;20043;-49
2022/03/22 06:54:55;;;;;;;;;;;-1.60;99.90;;;;;;4192161;28;20063;-51
2022/03/22 06:56:57;;;;;;;;;;;-1.60;99.90;;;;;;4191034;28;20030;-48
2022/03/22 06:58:59;;;;;;;;;;;-1.40;99.90;;;;;;4192872;28;19931;-47
2022/03/22 07:01:01;;;;;;;;;;;-1.30;99.90;;;;;;4193156;28;20026;-47
2022/03/22 07:03:03;;;;;;;;;;;-1.20;99.90;;;;;;4193125;28;19925;-48
2022/03/22 07:05:06;;;;;;;;;;;-1.10;99.90;;;;;;4192960;28;20400;-50
2022/03/22 07:07:08;;;;;;;;;;;-1.10;99.90;;;;;;4174936;28;19936;-47
2022/03/22 07:09:10;;;;;;;;;;;-0.70;99.90;;;;;;4193143;28;19974;-51
2022/03/22 07:13:32;;;;;;;;;;;-0.30;99.90;;;;;;4195815;28;19978;-48
2022/03/22 07:15:36;;;;;;;;;;;-0.10;99.90;;;;;;4195825;28;19924;-50
2022/03/22 07:17:40;;;;;;;;;;;-0.10;99.90;;;;;;4195196;28;19967;-48
2022/03/22 07:19:42;;;;;;;;;;;0.00;99.90;;;;;;4195156;28;19928;-47
2022/03/22 07:21:44;;;;;;;;;;;0.20;99.90;;;;;;4194091;28;20222;-51
2022/03/22 07:23:46;;;;;;;;;;;0.30;99.90;;;;;;4195568;28;20296;-47
2022/03/22 07:25:48;;;;;;;;;;;0.30;99.90;;;;;;4195774;28;20331;-50
2022/03/22 07:27:51;;;;;;;;;;;0.40;99.90;;;;;;4195549;28;19935;-49
2022/03/22 07:29:52;;;;;;;;;;;0.50;99.90;;;;;;4195714;28;19924;-48
2022/03/22 07:31:56;;;;;;;;;;;0.80;99.90;;;;;;4194223;28;20483;-48
2022/03/22 07:33:58;;;;;;;;;;;1.20;99.90;;;;;;4194852;28;20213;-48
2022/03/22 07:36:00;;;;;;;;;;;1.40;99.90;;;;;;4195178;28;19970;-50
2022/03/22 07:38:02;;;;;;;;;;;1.50;99.90;;;;;;4195534;28;19931;-51
2022/03/22 07:40:06;;;;;;;;;;;1.50;99.90;;;;;;4195353;28;19932;-49
2022/03/22 07:42:09;;;;;;;;;;;1.80;99.90;;;;;;4194329;28;19928;-49
2022/03/22 07:44:13;;;;;;;;;;;2.00;99.90;;;;;;4195299;28;19928;-51
2022/03/22 07:46:15;;;;;;;;;;;2.20;99.90;;;;;;4195403;28;19931;-51
2022/03/22 07:48:19;;;;;;;;;;;2.40;99.90;;;;;;4195327;28;19929;-50
2022/03/22 07:55:02;;;;;;;;;;;3.30;99.90;;;;;;4195232;28;20281;-49
2022/03/22 07:57:07;;;;;;;;;;;3.50;99.90;;;;;;4195121;28;19928;-52
2022/03/22 07:59:09;;;;;;;;;;;3.80;99.90;;;;;;4195214;28;20015;-48
2022/03/22 08:01:10;;;;;;;;;;;3.90;99.90;;;;;;4195271;28;19932;-51
2022/03/22 08:03:15;;;;;;;;;;;3.90;99.90;;;;;;4188541;28;19928;-48
2022/03/22 08:05:17;;;;;;;;;;;4.20;99.90;;;;;;4183483;28;19978;-48
2022/03/22 08:07:19;;;;;;;;;;;4.50;98.90;;;;;;4195144;28;20636;-49
2022/03/22 08:09:21;;;;;;;;;;;4.60;97.70;;;;;;4194850;28;19936;-50
2022/03/22 08:11:24;;;;;;;;;;;4.90;98.30;;;;;;4193944;28;20019;-51
2022/03/22 08:13:26;;;;;;;;;;;5.30;97.20;;;;;;4194814;28;19925;-48
2022/03/22 08:15:28;;;;;;;;;;;5.50;96.70;;;;;;4195181;28;19935;-48
2022/03/22 08:17:30;;;;;;;;;;;5.50;95.80;;;;;;4194529;28;19932;-48
2022/03/22 08:19:36;;;;;;;;;;;5.80;96.20;;;;;;4187441;28;19931;-51
2022/03/22 08:21:38;;;;;;;;;;;5.90;94.50;;;;;;4194357;28;19977;-50
2022/03/22 08:23:40;;;;;;;;;;;6.10;94.80;;;;;;4193181;28;19928;-49
2022/03/22 08:25:48;;;;;;;;;;;6.30;95.40;;;;;;4194919;28;19974;-50
2022/03/22 08:27:51;;;;;;;;;;;6.30;94.30;;;;;;4194523;28;19932;-51
2022/03/22 08:29:52;;;;;;;;;;;6.40;94.50;;;;;;4194852;28;19968;-50
2022/03/22 08:31:54;;;;;;;;;;;6.60;94.60;;;;;;4194473;28;20297;-50
2022/03/22 08:33:56;;;;;;;;;;;6.90;94.60;;;;;;4194629;28;19967;-51
2022/03/22 08:35:58;;;;;;;;;;;7.20;93.30;;;;;;4194646;28;19928;-51
2022/03/22 08:38:02;;;;;;;;;;;7.30;93.00;;;;;;4194449;28;19960;-49
2022/03/22 08:40:04;;;;;;;;;;;7.50;90.90;;;;;;4195081;28;19925;-51
2022/03/22 08:42:06;;;;;;;;;;;7.80;91.00;;;;;;4194355;28;20357;-48
2022/03/22 08:44:08;;;;;;;;;;;8.10;90.00;;;;;;4194716;28;20323;-48
2022/03/22 08:46:11;;;;;;;;;;;8.20;90.20;;;;;;4194573;28;20002;-51
2022/03/22 08:48:13;;;;;;;;;;;8.30;90.30;;;;;;4194135;28;20665;-52
2022/03/22 08:50:17;;;;;;;;;;;8.70;89.10;;;;;;4186432;28;19924;-51
2022/03/22 08:52:19;;;;;;;;;;;8.90;87.10;;;;;;4192354;28;19968;-49
2022/03/22 08:54:21;;;;;;;;;;;9.20;83.90;;;;;;4194194;28;19935;-49
2022/03/22 08:56:25;;;;;;;;;;;9.30;85.10;;;;;;4194301;28;19924;-51
2022/03/22 08:58:27;;;;;;;;;;;9.50;83.40;;;;;;4194112;28;19974;-49
2022/03/22 09:00:29;;;;;;;;;;;9.80;82.10;;;;;;4194231;28;20396;-51
2022/03/22 09:02:31;;;;;;;;;;;9.80;78.90;;;;;;4194230;28;19939;-49
2022/03/22 09:06:53;;;;;;;;;;;10.30;76.80;;;;;;4193956;28;19925;-52
2022/03/22 09:08:55;;;;;;;;;;;10.50;76.50;;;;;;4192764;28;19932;-52
2022/03/22 09:10:57;;;;;;;;;;;10.90;80.60;;;;;;4194203;28;20457;-50
2022/03/22 09:12:59;;;;;;;;;;;11.10;76.30;;;;;;4193803;28;20027;-49
2022/03/22 09:15:01;;;;;;;;;;;11.20;73.90;;;;;;4193852;28;19929;-50
2022/03/22 09:17:05;;;;;;;;;;;11.50;71.60;;;;;;4187320;28;19960;-52
2022/03/22 09:19:06;;;;;;;;;;;11.60;70.60;;;;;;4192965;28;19932;-52
2022/03/22 09:21:10;;;;;;;;;;;11.50;69.00;;;;;;4194380;28;20343;-51
2022/03/22 09:23:12;;;;;;;;;;;11.50;67.30;;;;;;4193681;28;19929;-53
2022/03/22 09:25:14;;;;;;;;;;;11.70;67.50;;;;;;4194051;28;20440;-50
2022/03/22 09:27:16;;;;;;;;;;;12.00;66.70;;;;;;4192764;28;20454;-51
2022/03/22 09:29:19;;;;;;;;;;;12.20;66.30;;;;;;4193614;28;20417;-51
2022/03/22 09:31:23;;;;;;;;;;;12.20;67.80;;;;;;4193413;28;20206;-50
2022/03/22 09:33:25;;;;;;;;;;;12.70;66.30;;;;;;4192989;28;20478;-50
2022/03/22 09:35:27;;;;;;;;;;;12.60;61.60;;;;;;4193356;28;20188;-52
2022/03/22 09:37:31;;;;;;;;;;;12.50;63.50;;;;;;4193573;28;19928;-49
2022/03/22 09:39:33;;;;;;;;;;;12.90;64.00;;;;;;4193577;28;19967;-52
2022/03/22 09:41:37;;;;;;;;;;;12.80;57.80;;;;;;4193831;28;19963;-50
2022/03/22 09:43:43;;;;;;;;;;;12.90;61.10;;;;;;4193378;28;19929;-50
2022/03/22 09:45:45;;;;;;;;;;;13.20;64.80;;;;;;4181986;28;19970;-51
2022/03/22 09:47:50;;;;;;;;;;;13.60;61.40;;;;;;4183938;28;19928;-51
2022/03/22 09:49:52;;;;;;;;;;;13.60;60.80;;;;;;4193656;28;20148;-52
2022/03/22 09:51:54;;;;;;;;;;;13.80;62.80;;;;;;4193483;28;19931;-50
2022/03/22 09:53:56;;;;;;;;;;;13.90;61.30;;;;;;4193613;28;20210;-50
2022/03/22 09:55:58;;;;;;;;;;;13.70;60.20;;;;;;4193284;28;20392;-51
2022/03/22 09:58:00;;;;;;;;;;;13.60;60.20;;;;;;4193646;28;20394;-51
2022/03/22 10:00:05;;;;;;;;;;;13.70;60.00;;;;;;4193486;28;19955;-52
2022/03/22 10:02:08;;;;;;;;;;;13.40;59.70;;;;;;4193687;28;19935;-52
2022/03/22 10:04:13;;;;;;;;;;;13.50;60.40;;;;;;4193613;28;19928;-49
2022/03/22 10:06:19;;;;;;;;;;;13.20;59.00;;;;;;4193280;28;19932;-53
2022/03/22 10:08:21;;;;;;;;;;;13.30;59.10;;;;;;4193568;28;19933;-52
2022/03/22 10:10:23;;;;;;;;;;;13.10;59.50;;;;;;4193358;28;19935;-51
2022/03/22 10:12:26;;;;;;;;;;;13.00;59.40;;;;;;4193316;28;19929;-53
2022/03/22 10:14:38;;;;;;;;;;;13.40;60.90;;;;;;4186411;28;19960;-52
2022/03/22 10:16:43;;;;;;;;;;;13.70;59.90;;;;;;4193116;28;19928;-52
2022/03/22 10:18:45;;;;;;;;;;;13.50;58.70;;;;;;4192934;28;19925;-51
2022/03/22 10:20:47;;;;;;;;;;;13.80;58.80;;;;;;4193123;28;20022;-52
2022/03/22 10:22:56;;;;;;;;;;;14.00;60.10;;;;;;4193269;28;20034;-52
2022/03/22 10:24:58;;;;;;;;;;;14.20;59.40;;;;;;4193389;28;19925;-52
2022/03/22 10:27:01;;;;;;;;;;;14.30;57.70;;;;;;4192136;28;19939;-52
2022/03/22 10:29:06;;;;;;;;;;;14.50;59.00;;;;;;4190850;28;19929;-52
2022/03/22 10:31:08;;;;;;;;;;;14.60;58.60;;;;;;4182345;28;20014;-53
2022/03/22 10:33:11;;;;;;;;;;;14.90;57.90;;;;;;4189212;28;20389;-53
2022/03/22 10:35:12;;;;;;;;;;;15.00;57.60;;;;;;4190580;28;19939;-52
2022/03/22 10:37:24;;;;;;;;;;;14.90;57.00;;;;;;4184223;28;21932;-52
2022/03/22 10:39:25;;;;;;;;;;;14.80;56.60;;;;;;4192228;28;19932;-52
2022/03/22 10:41:29;;;;;;;;;;;14.70;56.70;;;;;;4190346;28;20377;-52
2022/03/22 10:43:36;;;;;;;;;;;14.60;56.90;;;;;;4192815;28;19941;-54
2022/03/22 10:45:41;;;;;;;;;;;14.70;56.60;;;;;;4189108;28;19932;-51
2022/03/22 10:47:43;;;;;;;;;;;14.50;56.80;;;;;;4193650;28;19925;-53
2022/03/22 10:49:45;;;;;;;;;;;14.50;55.90;;;;;;4186493;28;19928;-53
2022/03/22 10:51:52;;;;;;;;;;;14.50;57.00;;;;;;4192809;28;19928;-52
2022/03/22 10:53:54;;;;;;;;;;;14.60;59.70;;;;;;4192039;28;19928;-53
2022/03/22 10:55:57;;;;;;;;;;;15.20;58.70;;;;;;4196366;28;20387;-52
2022/03/22 10:58:00;;;;;;;;;;;15.30;55.00;;;;;;4195788;28;19932;-53
2022/03/22 11:00:04;;;;;;;;;;;15.00;56.20;;;;;;4194448;28;20093;-53
2022/03/22 11:02:06;;;;;;;;;;;15.10;55.80;;;;;;4188190;28;19925;-52
2022/03/22 11:04:09;;;;;;;;;;;15.10;56.60;;;;;;4191676;28;20407;-52
2022/03/22 11:06:11;;;;;;;;;;;15.00;55.30;;;;;;4204756;28;19932;-52
2022/03/22 11:08:13;;;;;;;;;;;14.80;55.70;;;;;;4197912;28;19924;-53
2022/03/22 11:10:19;;;;;;;;;;;14.90;57.00;;;;;;4184849;28;19958;-53
2022/03/22 11:12:24;;;;;;;;;;;15.40;57.20;;;;;;4189530;28;19932;-52
2022/03/22 11:14:27;;;;;;;;;;;15.60;56.10;;;;;;4193872;28;20377;-52
2022/03/22 11:16:30;;;;;;;;;;;15.20;55.90;;;;;;4191432;28;19931;-53
2022/03/22 11:18:32;;;;;;;;;;;15.20;55.40;;;;;;4197895;28;19928;-53
2022/03/22 11:20:34;;;;;;;;;;;15.40;55.60;;;;;;4194735;28;19924;-51
2022/03/22 11:22:42;;;;;;;;;;;15.80;56.70;;;;;;4194345;28;19924;-53
2022/03/22 11:24:48;;;;;;;;;;;16.00;56.40;;;;;;4195428;28;20376;-52
2022/03/22 11:26:52;;;;;;;;;;;15.70;54.90;;;;;;4191811;28;19929;-52
2022/03/22 11:28:54;;;;;;;;;;;15.60;56.80;;;;;;4189406;28;19925;-52
2022/03/22 11:30:57;;;;;;;;;;;15.80;59.40;;;;;;4193873;28;19947;-53
2022/03/22 11:35:24;;;;;;;;;;;16.00;55.90;;;;;;4188302;28;20015;-52
2022/03/22 11:37:33;;;;;;;;;;;16.30;56.80;;;;;;4193807;28;19931;-53
2022/03/22 11:44:18;;;;;;;;;;;16.30;58.90;;;;;;4182988;28;20380;-51
2022/03/22 11:46:30;;;;;;;;;;;16.80;58.80;;;;;;4192930;28;20002;-52
2022/03/22 11:48:32;;;;;;;;;;;16.40;56.10;;;;;;4193893;28;19939;-52
2022/03/22 11:50:33;;;;;;;;;;;16.20;55.20;;;;;;4193615;28;19928;-52
2022/03/22 11:52:39;;;;;;;;;;;16.00;57.90;;;;;;4195410;28;19928;-53
2022/03/22 11:54:51;;;;;;;;;;;15.90;54.90;;;;;;4194134;28;19928;-50
2022/03/22 11:56:58;;;;;;;;;;;15.50;53.70;;;;;;4195044;28;19931;-51
2022/03/22 11:59:03;;;;;;;;;;;15.10;54.90;;;;;;4194087;28;19932;-50
2022/03/22 12:01:14;;;;;;;;;;;15.10;55.00;;;;;;4194346;28;20027;-50
2022/03/22 12:03:18;;;;;;;;;;;15.40;58.40;;;;;;4194577;28;20284;-51
2022/03/22 12:05:22;;;;;;;;;;;15.80;54.70;;;;;;4193631;28;20347;-50
2022/03/22 12:07:29;;;;;;;;;;;15.80;56.20;;;;;;4194597;28;20408;-51
2022/03/22 12:09:31;;;;;;;;;;;16.10;54.90;;;;;;4190341;28;19986;-49
2022/03/22 12:11:33;;;;;;;;;;;16.50;57.60;;;;;;4193477;28;19932;-51
2022/03/22 12:13:43;;;;;;;;;;;17.00;60.10;;;;;;4191635;28;20333;-50
2022/03/22 12:15:45;;;;;;;;;;;16.50;57.40;;;;;;4193815;28;19924;-49
2022/03/22 12:17:47;;;;;;;;;;;16.30;58.70;;;;;;4190304;28;20344;-51
2022/03/22 12:19:49;;;;;;;;;;;15.80;57.00;;;;;;4192392;28;19982;-50
2022/03/22 12:21:53;;;;;;;;;;;15.70;57.60;;;;;;4193076;28;20591;-50
2022/03/22 12:23:55;;;;;;;;;;;16.00;58.80;;;;;;4193488;28;19928;-51
2022/03/22 12:25:56;;;;;;;;;;;16.30;58.30;;;;;;4194232;28;20376;-50
2022/03/22 12:28:01;;;;;;;;;;;16.60;58.90;;;;;;4191054;28;19963;-51
2022/03/22 12:30:03;;;;;;;;;;;16.40;58.20;;;;;;4194977;28;20300;-50
2022/03/22 12:32:10;;;;;;;;;;;16.40;58.40;;;;;;4193057;28;19979;-50